createdAt,value
2022-11-20T00:02:13.416Z,52.88
2022-11-20T00:07:15.267Z,53.67
2022-11-20T00:12:17.195Z,52.29
2022-11-20T00:17:18.834Z,48.42
2022-11-20T00:22:20.442Z,49.60
2022-11-20T00:27:22.074Z,48.10
2022-11-20T00:32:23.754Z,48.77
2022-11-20T00:37:25.437Z,50.59
2022-11-20T00:42:27.077Z,47.57
2022-11-20T00:47:28.655Z,47.10
2022-11-20T00:52:30.241Z,52.77
2022-11-20T00:57:32.537Z,53.62
2022-11-20T01:02:34.099Z,56.99
2022-11-20T01:07:35.715Z,55.01
2022-11-20T01:12:37.301Z,53.61
2022-11-20T01:17:38.883Z,52.55
2022-11-20T01:22:40.402Z,52.71
2022-11-20T01:27:42.127Z,53.76
2022-11-20T01:32:43.703Z,53.59
2022-11-20T01:37:45.276Z,53.40
2022-11-20T01:43:17.441Z,55.22
2022-11-20T01:48:21.611Z,57.00
2022-11-20T01:53:28.961Z,53.80
2022-11-20T01:58:34.962Z,53.48
2022-11-20T02:03:37.231Z,53.89
2022-11-20T02:08:39.164Z,53.96
2022-11-20T02:13:44.170Z,55.80
2022-11-20T02:18:46.876Z,54.60
2022-11-20T02:23:54.643Z,52.90
2022-11-20T02:28:56.686Z,52.20
2022-11-20T02:33:59.090Z,53.47
2022-11-20T02:39:00.894Z,53.01
2022-11-20T02:44:03.537Z,52.39
2022-11-20T02:49:06.185Z,52.23
2022-11-20T02:54:07.726Z,53.00
2022-11-20T02:59:09.338Z,51.88
2022-11-20T03:04:10.911Z,52.79
2022-11-20T03:09:12.978Z,53.98
2022-11-20T03:14:15.217Z,55.24
2022-11-20T03:19:16.858Z,56.35
2022-11-20T03:24:18.575Z,54.89
2022-11-20T03:29:20.481Z,53.44
2022-11-20T03:34:22.283Z,55.18
2022-11-20T03:39:24.258Z,55.37
2022-11-20T03:44:26.224Z,55.37
2022-11-20T03:49:27.817Z,55.03
2022-11-20T03:54:29.489Z,54.28
2022-11-20T03:59:31.178Z,55.43
2022-11-20T04:04:32.778Z,54.43
2022-11-20T04:09:34.370Z,55.34
2022-11-20T04:14:35.955Z,56.11
2022-11-20T04:19:37.542Z,54.25
2022-11-20T04:24:39.162Z,53.40
2022-11-20T04:29:40.758Z,52.70
2022-11-20T04:34:42.375Z,54.73
2022-11-20T04:39:44.009Z,53.43
2022-11-20T04:44:45.581Z,53.92
2022-11-20T04:49:47.283Z,53.62
2022-11-20T04:54:48.929Z,53.43
2022-11-20T04:59:50.512Z,55.58
2022-11-20T05:04:52.350Z,53.91
2022-11-20T05:09:54.014Z,53.80
2022-11-20T05:14:55.583Z,52.82
2022-11-20T05:19:57.171Z,52.94
2022-11-20T05:24:58.806Z,53.70
2022-11-20T05:30:00.443Z,53.43
2022-11-20T05:35:02.094Z,53.92
2022-11-20T05:40:04.078Z,52.54
2022-11-20T05:45:06.929Z,54.21
2022-11-20T05:50:08.968Z,55.49
2022-11-20T05:55:10.779Z,53.14
2022-11-20T06:00:12.987Z,53.64
2022-11-20T06:05:14.639Z,52.26
2022-11-20T06:10:16.206Z,54.94
2022-11-20T06:15:17.920Z,53.63
2022-11-20T06:20:19.510Z,55.01
2022-11-20T06:25:21.058Z,53.66
2022-11-20T06:30:22.636Z,53.04
2022-11-20T06:35:24.215Z,54.63
2022-11-20T06:40:25.838Z,54.32
2022-11-20T06:45:27.845Z,55.27
2022-11-20T06:50:29.402Z,53.36
2022-11-20T06:55:32.230Z,54.29
2022-11-20T07:00:33.857Z,53.61
2022-11-20T07:05:36.556Z,54.08
2022-11-20T07:10:38.264Z,55.14
2022-11-20T07:15:39.932Z,53.84
2022-11-20T07:20:41.537Z,52.61
2022-11-20T07:25:43.151Z,54.42
2022-11-20T07:30:51.104Z,54.45
2022-11-20T07:35:55.078Z,53.33
2022-11-20T07:40:58.515Z,55.26
2022-11-20T07:46:00.619Z,54.20
2022-11-20T07:51:02.375Z,52.85
2022-11-20T07:56:04.535Z,54.61
2022-11-20T08:01:08.133Z,56.42
2022-11-20T08:06:10.293Z,55.03
2022-11-20T08:11:30.191Z,55.68
2022-11-20T08:16:31.879Z,54.78
2022-11-20T08:21:37.980Z,53.71
2022-11-20T08:26:41.070Z,54.58
2022-11-20T08:31:42.722Z,55.38
2022-11-20T08:36:44.363Z,56.31
2022-11-20T08:41:46.042Z,56.11
2022-11-20T08:46:48.118Z,53.34
2022-11-20T08:51:52.699Z,55.95
2022-11-20T08:56:54.399Z,57.87
2022-11-20T09:01:55.995Z,53.51
2022-11-20T09:06:57.750Z,57.50
2022-11-20T09:11:59.614Z,53.71
2022-11-20T09:17:01.257Z,55.25
2022-11-20T09:22:03.030Z,55.53
2022-11-20T09:27:05.905Z,55.39
2022-11-20T09:32:07.629Z,53.80
2022-11-20T09:37:09.266Z,55.77
2022-11-20T09:42:20.970Z,53.69
2022-11-20T09:48:01.503Z,54.31
2022-11-20T09:53:31.657Z,55.78
2022-11-20T09:58:53.490Z,55.33
2022-11-20T10:04:17.819Z,55.01
2022-11-20T10:09:29.958Z,51.87
2022-11-20T10:14:31.476Z,54.17
2022-11-20T10:19:57.319Z,54.14
2022-11-20T10:25:20.302Z,53.02
2022-11-20T10:30:25.955Z,53.90
2022-11-20T10:35:40.182Z,50.94
2022-11-20T10:40:52.154Z,51.54
2022-11-20T10:46:41.174Z,50.86
2022-11-20T10:52:21.709Z,52.04
2022-11-20T10:58:00.955Z,50.15
2022-11-20T11:06:19.758Z,59.20
2022-11-20T11:11:29.061Z,58.22
2022-11-20T11:16:30.631Z,57.50
2022-11-20T11:21:32.366Z,56.23
2022-11-20T11:26:34.039Z,56.15
2022-11-20T11:31:36.420Z,55.06
2022-11-20T11:36:38.597Z,53.84
2022-11-20T11:41:41.098Z,54.41
2022-11-20T11:46:54.403Z,53.76
2022-11-20T11:52:19.483Z,52.75
2022-11-20T11:57:23.961Z,52.12
2022-11-20T12:02:37.950Z,51.33
2022-11-20T12:07:47.591Z,50.46
2022-11-20T12:12:55.715Z,50.41
2022-11-20T12:17:57.791Z,51.34
2022-11-20T12:23:26.726Z,50.21
2022-11-20T12:28:46.823Z,49.98
2022-11-20T12:33:51.174Z,49.74
2022-11-20T12:38:52.891Z,49.11
2022-11-20T12:44:50.125Z,49.59
2022-11-20T12:50:03.308Z,49.18
2022-11-20T12:55:32.633Z,48.23
2022-11-20T13:00:35.773Z,47.43
2022-11-20T13:05:59.302Z,47.26
2022-11-20T13:11:09.778Z,48.00
2022-11-20T13:16:14.762Z,47.12
2022-11-20T13:21:19.777Z,48.69
2022-11-20T13:26:24.070Z,48.16
2022-11-20T13:31:33.332Z,48.05
2022-11-20T13:36:37.567Z,47.59
2022-11-20T13:41:40.497Z,47.76
2022-11-20T13:46:45.599Z,47.89
2022-11-20T13:51:52.705Z,47.24
2022-11-20T13:57:22.476Z,47.87
2022-11-20T14:02:27.777Z,47.70
2022-11-20T14:07:51.136Z,47.82
2022-11-20T14:12:53.127Z,48.07
2022-11-20T14:17:54.808Z,48.66
2022-11-20T14:22:57.002Z,47.97
2022-11-20T14:28:00.979Z,47.67
2022-11-20T14:33:04.699Z,48.92
2022-11-20T14:38:14.316Z,48.46
2022-11-20T14:43:20.467Z,49.63
2022-11-20T14:48:29.506Z,49.19
2022-11-20T14:53:31.136Z,48.56
2022-11-20T14:58:34.569Z,49.05
2022-11-20T15:03:39.006Z,48.27
2022-11-20T15:08:52.416Z,48.26
2022-11-20T15:13:54.022Z,48.27
2022-11-20T15:18:56.386Z,48.51
2022-11-20T15:23:58.329Z,48.01
2022-11-20T15:29:00.045Z,48.50
2022-11-20T15:34:01.698Z,47.89
2022-11-20T15:39:03.594Z,48.38
2022-11-20T15:44:05.867Z,48.30
2022-11-20T15:49:13.342Z,48.46
2022-11-20T15:54:19.106Z,48.22
2022-11-20T15:59:21.717Z,49.17
2022-11-20T16:04:23.560Z,48.31
2022-11-20T16:09:25.403Z,48.19
2022-11-20T16:14:46.558Z,48.72
2022-11-20T16:19:48.222Z,49.84
2022-11-20T16:24:49.889Z,48.15
2022-11-20T16:29:51.520Z,48.87
2022-11-20T16:34:54.163Z,48.95
2022-11-20T16:39:57.317Z,49.06
2022-11-20T16:44:59.192Z,47.76
2022-11-20T16:50:01.923Z,48.49
2022-11-20T16:55:04.037Z,48.00
2022-11-20T17:00:08.302Z,49.44
2022-11-20T17:05:10.040Z,51.56
2022-11-20T17:10:11.818Z,50.64
2022-11-20T17:15:13.391Z,52.36
2022-11-20T17:20:14.982Z,50.51
2022-11-20T17:25:17.173Z,50.91
2022-11-20T17:30:19.314Z,49.09
2022-11-20T17:35:21.470Z,49.33
2022-11-20T17:40:27.409Z,50.82
2022-11-20T17:45:29.564Z,49.67
2022-11-20T17:50:31.181Z,51.38
2022-11-20T17:55:55.905Z,53.98
2022-11-20T18:01:05.190Z,52.73
2022-11-20T18:06:14.228Z,52.80
2022-11-20T18:11:16.809Z,55.45
2022-11-20T18:16:18.459Z,55.79
2022-11-20T18:21:20.103Z,56.08
2022-11-20T18:26:21.954Z,55.98
2022-11-20T18:31:24.073Z,55.68
2022-11-20T18:36:28.253Z,55.82
2022-11-20T18:41:49.911Z,57.72
2022-11-20T18:46:51.678Z,57.15
2022-11-20T18:51:53.702Z,56.94
2022-11-20T18:56:55.494Z,56.10
2022-11-20T19:01:57.111Z,56.45
2022-11-20T19:06:58.773Z,56.18
2022-11-20T19:12:05.220Z,56.42
2022-11-20T19:17:07.411Z,57.15
2022-11-20T19:22:09.474Z,56.57
2022-11-20T19:27:11.240Z,56.55
2022-11-20T19:32:12.861Z,57.55
2022-11-20T19:37:14.454Z,57.91
2022-11-20T19:42:16.122Z,58.08
2022-11-20T19:47:17.713Z,58.10
2022-11-20T19:52:19.291Z,57.08
2022-11-20T19:57:20.838Z,58.65
2022-11-20T20:02:22.407Z,58.98
2022-11-20T20:07:24.100Z,57.94
2022-11-20T20:12:25.711Z,61.65
2022-11-20T20:17:27.405Z,58.02
2022-11-20T20:22:28.988Z,56.69
2022-11-20T20:27:31.343Z,55.50
2022-11-20T20:32:34.778Z,56.33
2022-11-20T20:37:36.428Z,58.02
2022-11-20T20:42:38.071Z,55.56
2022-11-20T20:47:41.264Z,56.36
2022-11-20T20:52:43.742Z,54.90
2022-11-20T20:57:45.381Z,56.64
2022-11-20T21:02:46.974Z,57.39
2022-11-20T21:08:07.095Z,57.37
2022-11-20T21:13:08.704Z,55.63
2022-11-20T21:18:10.246Z,56.44
2022-11-20T21:23:11.870Z,59.09
2022-11-20T21:28:18.041Z,57.47
2022-11-20T21:33:20.022Z,56.91
2022-11-20T21:38:21.562Z,56.36
2022-11-20T21:43:23.137Z,55.85
2022-11-20T21:48:29.122Z,54.48
2022-11-20T21:53:31.375Z,53.82
2022-11-20T21:58:35.108Z,54.99
2022-11-20T22:03:37.500Z,54.39
2022-11-20T22:08:39.195Z,57.98
2022-11-20T22:13:59.899Z,55.15
2022-11-20T22:19:01.811Z,55.16
2022-11-20T22:24:03.619Z,54.40
2022-11-20T22:29:05.307Z,55.94
2022-11-20T22:34:06.934Z,58.52
2022-11-20T22:39:08.856Z,58.49
2022-11-20T22:44:14.333Z,57.61
2022-11-20T22:49:16.012Z,60.47
2022-11-20T22:54:17.688Z,60.63
2022-11-20T22:59:19.234Z,58.66
2022-11-20T23:04:20.898Z,56.99
2022-11-20T23:09:22.509Z,56.11
2022-11-20T23:14:27.705Z,56.37
2022-11-20T23:19:29.762Z,56.92
2022-11-20T23:24:31.312Z,58.24
2022-11-20T23:29:32.937Z,57.87
2022-11-20T23:34:34.601Z,60.30
2022-11-20T23:39:36.268Z,59.50
2022-11-20T23:44:37.818Z,58.00
2022-11-20T23:49:39.349Z,56.47
2022-11-20T23:54:40.999Z,56.97
2022-11-20T23:59:42.685Z,57.19
